sensor_id;sensor_type;location;lat;lon;timestamp;pressure;altitude;pressure_sealevel;temperature;humidity
60589;BME280;46421;48.610;9.334;2022-09-09T00:06:30;97737.31;;;13.58;91.99
60589;BME280;46421;48.610;9.334;2022-09-09T00:09:08;97725.94;;;13.36;92.49
60589;BME280;46421;48.610;9.334;2022-09-09T00:14:42;97733.66;;;13.99;89.31
60589;BME280;46421;48.610;9.334;2022-09-09T00:17:14;97730.34;;;13.97;87.00
60589;BME280;46421;48.610;9.334;2022-09-09T00:19:51;97713.44;;;13.36;90.13
60589;BME280;46421;48.610;9.334;2022-09-09T00:22:23;97713.97;;;13.11;91.82
60589;BME280;46421;48.610;9.334;2022-09-09T00:24:53;97721.13;;;13.04;92.71
60589;BME280;46421;48.610;9.334;2022-09-09T00:27:32;97705.56;;;13.15;91.41
60589;BME280;46421;48.610;9.334;2022-09-09T00:30:15;97701.19;;;12.93;92.75
60589;BME280;46421;48.610;9.334;2022-09-09T00:32:44;97709.78;;;12.89;93.21
60589;BME280;46421;48.610;9.334;2022-09-09T00:37:35;97711.22;;;13.87;88.50
60589;BME280;46421;48.610;9.334;2022-09-09T00:40:02;97711.81;;;13.49;89.07
60589;BME280;46421;48.610;9.334;2022-09-09T00:42:43;97702.97;;;13.41;90.02
60589;BME280;46421;48.610;9.334;2022-09-09T00:48:05;97713.44;;;12.81;93.68
60589;BME280;46421;48.610;9.334;2022-09-09T00:53:34;97721.69;;;12.86;93.19
60589;BME280;46421;48.610;9.334;2022-09-09T00:56:18;97719.00;;;12.79;94.40
60589;BME280;46421;48.610;9.334;2022-09-09T00:59:02;97727.59;;;12.75;95.55
60589;BME280;46421;48.610;9.334;2022-09-09T01:01:33;97729.97;;;12.63;95.09
60589;BME280;46421;48.610;9.334;2022-09-09T01:03:58;97725.66;;;12.62;95.39
60589;BME280;46421;48.610;9.334;2022-09-09T01:06:37;97728.97;;;12.64;97.21
60589;BME280;46421;48.610;9.334;2022-09-09T01:09:38;97723.34;;;12.94;95.09
60589;BME280;46421;48.610;9.334;2022-09-09T01:12:28;97725.88;;;13.16;93.14
60589;BME280;46421;48.610;9.334;2022-09-09T01:15:08;97720.59;;;13.29;91.95
60589;BME280;46421;48.610;9.334;2022-09-09T01:17:48;97716.84;;;13.10;92.26
60589;BME280;46421;48.610;9.334;2022-09-09T01:20:25;97724.53;;;12.78;94.87
60589;BME280;46421;48.610;9.334;2022-09-09T01:23:10;97726.22;;;12.92;94.36
60589;BME280;46421;48.610;9.334;2022-09-09T01:28:13;97716.03;;;13.23;91.29
60589;BME280;46421;48.610;9.334;2022-09-09T01:30:41;97721.91;;;13.53;92.26
60589;BME280;46421;48.610;9.334;2022-09-09T01:33:14;97717.59;;;12.90;92.76
60589;BME280;46421;48.610;9.334;2022-09-09T01:36:00;97722.53;;;12.93;93.35
60589;BME280;46421;48.610;9.334;2022-09-09T01:38:28;97726.66;;;12.96;94.72
60589;BME280;46421;48.610;9.334;2022-09-09T01:40:54;97726.72;;;13.16;92.61
60589;BME280;46421;48.610;9.334;2022-09-09T01:43:21;97732.41;;;13.06;92.34
60589;BME280;46421;48.610;9.334;2022-09-09T01:45:49;97732.59;;;12.91;92.79
60589;BME280;46421;48.610;9.334;2022-09-09T01:48:17;97737.88;;;12.85;93.27
60589;BME280;46421;48.610;9.334;2022-09-09T01:50:44;97729.41;;;12.68;93.47
60589;BME280;46421;48.610;9.334;2022-09-09T01:53:10;97731.94;;;12.47;94.76
60589;BME280;46421;48.610;9.334;2022-09-09T01:55:40;97730.72;;;12.15;95.63
60589;BME280;46421;48.610;9.334;2022-09-09T01:58:25;97735.75;;;12.31;96.09
60589;BME280;46421;48.610;9.334;2022-09-09T02:01:04;97737.22;;;12.76;94.91
60589;BME280;46421;48.610;9.334;2022-09-09T02:03:32;97744.06;;;12.85;92.54
60589;BME280;46421;48.610;9.334;2022-09-09T02:06:35;97752.84;;;12.79;92.71
60589;BME280;46421;48.610;9.334;2022-09-09T02:09:05;97749.72;;;12.75;93.14
60589;BME280;46421;48.610;9.334;2022-09-09T02:11:31;97749.53;;;12.42;93.26
60589;BME280;46421;48.610;9.334;2022-09-09T02:14:04;97756.09;;;12.11;95.73
60589;BME280;46421;48.610;9.334;2022-09-09T02:16:48;97752.56;;;11.82;97.52
60589;BME280;46421;48.610;9.334;2022-09-09T02:21:49;97730.53;;;12.16;97.13
60589;BME280;46421;48.610;9.334;2022-09-09T02:24:15;97726.25;;;12.22;98.78
60589;BME280;46421;48.610;9.334;2022-09-09T02:26:42;97722.44;;;12.73;97.33
60589;BME280;46421;48.610;9.334;2022-09-09T02:29:14;97724.75;;;13.45;91.59
60589;BME280;46421;48.610;9.334;2022-09-09T02:31:42;97726.31;;;13.12;91.85
60589;BME280;46421;48.610;9.334;2022-09-09T02:34:10;97729.50;;;13.63;88.33
60589;BME280;46421;48.610;9.334;2022-09-09T02:36:40;97727.91;;;13.07;90.02
60589;BME280;46421;48.610;9.334;2022-09-09T02:39:08;97726.34;;;12.36;92.68
60589;BME280;46421;48.610;9.334;2022-09-09T02:41:38;97730.28;;;12.40;93.06
60589;BME280;46421;48.610;9.334;2022-09-09T02:44:12;97724.75;;;12.83;95.04
60589;BME280;46421;48.610;9.334;2022-09-09T02:47:24;97742.56;;;12.76;91.69
60589;BME280;46421;48.610;9.334;2022-09-09T02:52:47;97761.78;;;12.29;97.24
60589;BME280;46421;48.610;9.334;2022-09-09T02:57:51;97747.75;;;12.49;94.80
60589;BME280;46421;48.610;9.334;2022-09-09T03:00:26;97755.94;;;12.83;94.42
60589;BME280;46421;48.610;9.334;2022-09-09T03:02:53;97742.19;;;12.86;92.63
60589;BME280;46421;48.610;9.334;2022-09-09T03:05:19;97745.16;;;12.62;93.53
60589;BME280;46421;48.610;9.334;2022-09-09T03:07:45;97737.16;;;12.62;94.19
60589;BME280;46421;48.610;9.334;2022-09-09T03:10:10;97725.19;;;12.45;95.40
60589;BME280;46421;48.610;9.334;2022-09-09T03:12:36;97735.41;;;12.41;96.27
60589;BME280;46421;48.610;9.334;2022-09-09T03:15:01;97728.34;;;12.62;96.63
60589;BME280;46421;48.610;9.334;2022-09-09T03:17:27;97736.97;;;13.19;94.65
60589;BME280;46421;48.610;9.334;2022-09-09T03:19:53;97740.66;;;13.18;94.39
60589;BME280;46421;48.610;9.334;2022-09-09T03:22:19;97744.22;;;13.25;92.50
60589;BME280;46421;48.610;9.334;2022-09-09T03:24:46;97743.72;;;13.08;92.26
60589;BME280;46421;48.610;9.334;2022-09-09T03:27:12;97748.06;;;13.16;92.48
60589;BME280;46421;48.610;9.334;2022-09-09T03:29:39;97760.94;;;13.61;90.94
60589;BME280;46421;48.610;9.334;2022-09-09T03:32:04;97756.25;;;13.08;92.74
60589;BME280;46421;48.610;9.334;2022-09-09T03:34:29;97761.94;;;12.91;93.75
60589;BME280;46421;48.610;9.334;2022-09-09T03:36:55;97752.91;;;12.51;95.59
60589;BME280;46421;48.610;9.334;2022-09-09T03:39:21;97754.72;;;12.22;97.73
60589;BME280;46421;48.610;9.334;2022-09-09T03:41:46;97758.22;;;12.51;97.42
60589;BME280;46421;48.610;9.334;2022-09-09T03:44:13;97751.41;;;12.83;96.15
60589;BME280;46421;48.610;9.334;2022-09-09T03:46:39;97755.13;;;13.37;95.57
60589;BME280;46421;48.610;9.334;2022-09-09T03:49:04;97754.75;;;13.54;91.82
60589;BME280;46421;48.610;9.334;2022-09-09T03:51:30;97757.59;;;13.46;93.63
60589;BME280;46421;48.610;9.334;2022-09-09T03:53:55;97759.31;;;13.60;92.53
60589;BME280;46421;48.610;9.334;2022-09-09T03:56:23;97748.38;;;13.41;94.13
60589;BME280;46421;48.610;9.334;2022-09-09T03:58:48;97746.13;;;12.90;93.78
60589;BME280;46421;48.610;9.334;2022-09-09T04:01:14;97740.59;;;12.91;93.80
60589;BME280;46421;48.610;9.334;2022-09-09T04:03:40;97739.41;;;13.07;94.79
60589;BME280;46421;48.610;9.334;2022-09-09T04:06:07;97739.53;;;12.86;95.44
60589;BME280;46421;48.610;9.334;2022-09-09T04:08:33;97745.13;;;13.66;92.75
60589;BME280;46421;48.610;9.334;2022-09-09T04:10:59;97750.84;;;13.43;93.35
60589;BME280;46421;48.610;9.334;2022-09-09T04:13:25;97757.00;;;13.43;93.05
60589;BME280;46421;48.610;9.334;2022-09-09T04:15:57;97747.41;;;13.83;90.85
60589;BME280;46421;48.610;9.334;2022-09-09T04:18:23;97745.03;;;13.33;91.37
60589;BME280;46421;48.610;9.334;2022-09-09T04:20:50;97740.00;;;12.96;93.70
60589;BME280;46421;48.610;9.334;2022-09-09T04:23:16;97737.22;;;12.76;95.26
60589;BME280;46421;48.610;9.334;2022-09-09T04:25:48;97735.53;;;12.68;95.90
60589;BME280;46421;48.610;9.334;2022-09-09T04:28:15;97735.00;;;12.79;97.63
60589;BME280;46421;48.610;9.334;2022-09-09T04:30:41;97736.03;;;12.85;96.48
60589;BME280;46421;48.610;9.334;2022-09-09T04:33:07;97734.19;;;12.86;96.89
60589;BME280;46421;48.610;9.334;2022-09-09T04:35:33;97729.31;;;12.96;96.63
60589;BME280;46421;48.610;9.334;2022-09-09T04:37:58;97732.06;;;13.16;95.49
60589;BME280;46421;48.610;9.334;2022-09-09T04:40:24;97726.66;;;12.96;95.74
60589;BME280;46421;48.610;9.334;2022-09-09T04:42:50;97724.28;;;13.28;95.55
60589;BME280;46421;48.610;9.334;2022-09-09T04:45:16;97738.00;;;13.18;95.73
60589;BME280;46421;48.610;9.334;2022-09-09T04:47:41;97743.41;;;13.38;93.43
60589;BME280;46421;48.610;9.334;2022-09-09T04:50:08;97740.63;;;13.05;94.42
60589;BME280;46421;48.610;9.334;2022-09-09T04:52:34;97750.59;;;12.47;97.96
60589;BME280;46421;48.610;9.334;2022-09-09T04:55:00;97750.72;;;12.32;98.52
60589;BME280;46421;48.610;9.334;2022-09-09T04:57:26;97745.00;;;12.36;99.36
60589;BME280;46421;48.610;9.334;2022-09-09T04:59:51;97746.78;;;12.57;99.45
60589;BME280;46421;48.610;9.334;2022-09-09T05:02:17;97743.19;;;12.78;96.99
60589;BME280;46421;48.610;9.334;2022-09-09T05:04:42;97742.69;;;13.09;95.14
60589;BME280;46421;48.610;9.334;2022-09-09T05:07:10;97751.00;;;12.79;96.21
60589;BME280;46421;48.610;9.334;2022-09-09T05:09:36;97742.03;;;12.94;96.29
60589;BME280;46421;48.610;9.334;2022-09-09T05:12:01;97751.91;;;13.00;95.52
60589;BME280;46421;48.610;9.334;2022-09-09T05:14:28;97743.94;;;13.07;95.27
60589;BME280;46421;48.610;9.334;2022-09-09T05:16:54;97743.47;;;12.90;95.64
60589;BME280;46421;48.610;9.334;2022-09-09T05:19:21;97743.41;;;12.83;97.84
60589;BME280;46421;48.610;9.334;2022-09-09T05:21:46;97750.06;;;13.07;95.64
60589;BME280;46421;48.610;9.334;2022-09-09T05:24:12;97756.25;;;13.08;96.31
60589;BME280;46421;48.610;9.334;2022-09-09T05:26:37;97753.91;;;13.47;95.45
60589;BME280;46421;48.610;9.334;2022-09-09T05:29:03;97750.25;;;13.68;93.39
60589;BME280;46421;48.610;9.334;2022-09-09T05:31:30;97755.00;;;13.72;92.93
60589;BME280;46421;48.610;9.334;2022-09-09T05:33:55;97771.66;;;14.21;91.96
60589;BME280;46421;48.610;9.334;2022-09-09T05:36:22;97767.50;;;14.59;90.38
60589;BME280;46421;48.610;9.334;2022-09-09T05:38:48;97766.88;;;14.50;89.39
60589;BME280;46421;48.610;9.334;2022-09-09T05:41:14;97762.78;;;14.68;89.91
60589;BME280;46421;48.610;9.334;2022-09-09T05:43:41;97767.94;;;14.69;88.18
60589;BME280;46421;48.610;9.334;2022-09-09T05:46:21;97767.16;;;14.22;92.14
60589;BME280;46421;48.610;9.334;2022-09-09T05:48:48;97768.56;;;14.38;91.10
60589;BME280;46421;48.610;9.334;2022-09-09T05:51:19;97776.16;;;14.54;91.68
60589;BME280;46421;48.610;9.334;2022-09-09T05:53:47;97775.75;;;14.58;90.79
60589;BME280;46421;48.610;9.334;2022-09-09T05:56:21;97776.59;;;14.45;90.69
60589;BME280;46421;48.610;9.334;2022-09-09T05:58:49;97779.25;;;13.98;94.23
60589;BME280;46421;48.610;9.334;2022-09-09T06:01:23;97789.16;;;13.97;94.33
60589;BME280;46421;48.610;9.334;2022-09-09T06:03:52;97784.78;;;13.69;96.56
60589;BME280;46421;48.610;9.334;2022-09-09T06:06:20;97780.25;;;13.56;98.16
60589;BME280;46421;48.610;9.334;2022-09-09T06:08:46;97777.19;;;13.80;96.68
60589;BME280;46421;48.610;9.334;2022-09-09T06:11:14;97779.47;;;14.23;96.57
60589;BME280;46421;48.610;9.334;2022-09-09T06:13:41;97776.38;;;14.39;94.75
60589;BME280;46421;48.610;9.334;2022-09-09T06:16:11;97779.22;;;14.72;92.16
60589;BME280;46421;48.610;9.334;2022-09-09T06:18:37;97780.22;;;15.36;89.93
60589;BME280;46421;48.610;9.334;2022-09-09T06:21:05;97775.13;;;15.67;86.97
60589;BME280;46421;48.610;9.334;2022-09-09T06:23:35;97771.09;;;15.89;85.24
60589;BME280;46421;48.610;9.334;2022-09-09T06:26:17;97768.56;;;15.94;87.13
60589;BME280;46421;48.610;9.334;2022-09-09T06:28:45;97773.22;;;16.06;88.30
60589;BME280;46421;48.610;9.334;2022-09-09T06:31:12;97778.78;;;16.36;86.69
60589;BME280;46421;48.610;9.334;2022-09-09T06:33:40;97779.72;;;16.42;85.99
60589;BME280;46421;48.610;9.334;2022-09-09T06:36:20;97777.50;;;17.01;83.30
60589;BME280;46421;48.610;9.334;2022-09-09T06:38:46;97775.66;;;17.51;77.90
60589;BME280;46421;48.610;9.334;2022-09-09T06:41:13;97775.03;;;18.22;74.92
60589;BME280;46421;48.610;9.334;2022-09-09T06:43:39;97780.06;;;18.30;74.44
60589;BME280;46421;48.610;9.334;2022-09-09T06:46:11;97782.06;;;20.27;64.48
60589;BME280;46421;48.610;9.334;2022-09-09T06:48:38;97769.19;;;18.96;68.65
60589;BME280;46421;48.610;9.334;2022-09-09T06:51:07;97775.78;;;19.75;64.79
60589;BME280;46421;48.610;9.334;2022-09-09T06:53:34;97774.16;;;20.20;64.46
60589;BME280;46421;48.610;9.334;2022-09-09T06:56:27;97781.97;;;19.30;68.15
60589;BME280;46421;48.610;9.334;2022-09-09T06:58:55;97775.03;;;18.93;67.08
60589;BME280;46421;48.610;9.334;2022-09-09T07:01:23;97775.09;;;18.86;70.88
60589;BME280;46421;48.610;9.334;2022-09-09T07:03:51;97775.34;;;19.08;67.14
60589;BME280;46421;48.610;9.334;2022-09-09T07:06:22;97787.38;;;19.18;65.87
60589;BME280;46421;48.610;9.334;2022-09-09T07:08:55;97777.09;;;19.72;65.41
60589;BME280;46421;48.610;9.334;2022-09-09T07:11:22;97783.31;;;20.02;65.07
60589;BME280;46421;48.610;9.334;2022-09-09T07:13:49;97778.56;;;19.80;64.82
60589;BME280;46421;48.610;9.334;2022-09-09T07:16:19;97776.81;;;20.71;62.54
60589;BME280;46421;48.610;9.334;2022-09-09T07:18:45;97778.63;;;22.09;58.44
60589;BME280;46421;48.610;9.334;2022-09-09T07:21:12;97779.09;;;21.01;61.30
60589;BME280;46421;48.610;9.334;2022-09-09T07:23:38;97787.25;;;19.24;65.64
60589;BME280;46421;48.610;9.334;2022-09-09T07:26:08;97788.66;;;19.56;66.02
60589;BME280;46421;48.610;9.334;2022-09-09T07:28:34;97782.63;;;21.24;58.97
60589;BME280;46421;48.610;9.334;2022-09-09T07:31:01;97779.47;;;23.43;52.98
60589;BME280;46421;48.610;9.334;2022-09-09T07:33:33;97778.09;;;23.46;52.77
60589;BME280;46421;48.610;9.334;2022-09-09T07:36:03;97780.00;;;22.82;54.17
60589;BME280;46421;48.610;9.334;2022-09-09T07:38:29;97786.22;;;22.77;55.51
60589;BME280;46421;48.610;9.334;2022-09-09T07:41:03;97773.63;;;23.98;50.48
60589;BME280;46421;48.610;9.334;2022-09-09T07:43:28;97772.69;;;27.43;43.63
60589;BME280;46421;48.610;9.334;2022-09-09T07:45:57;97785.75;;;25.59;47.53
60589;BME280;46421;48.610;9.334;2022-09-09T07:48:23;97793.13;;;26.03;45.35
60589;BME280;46421;48.610;9.334;2022-09-09T07:50:48;97798.69;;;25.83;46.02
60589;BME280;46421;48.610;9.334;2022-09-09T07:53:14;97803.34;;;23.51;49.75
60589;BME280;46421;48.610;9.334;2022-09-09T07:55:39;97805.25;;;22.93;53.23
60589;BME280;46421;48.610;9.334;2022-09-09T07:58:05;97801.19;;;23.59;51.56
60589;BME280;46421;48.610;9.334;2022-09-09T08:00:31;97799.16;;;24.18;52.65
60589;BME280;46421;48.610;9.334;2022-09-09T08:02:58;97809.19;;;23.17;53.81
60589;BME280;46421;48.610;9.334;2022-09-09T08:05:25;97819.38;;;22.24;56.20
60589;BME280;46421;48.610;9.334;2022-09-09T08:07:54;97808.81;;;23.72;57.99
60589;BME280;46421;48.610;9.334;2022-09-09T08:10:19;97819.13;;;23.65;53.20
60589;BME280;46421;48.610;9.334;2022-09-09T08:12:45;97816.44;;;23.75;50.34
60589;BME280;46421;48.610;9.334;2022-09-09T08:15:11;97814.94;;;23.26;52.93
60589;BME280;46421;48.610;9.334;2022-09-09T08:17:37;97819.72;;;23.88;50.09
60589;BME280;46421;48.610;9.334;2022-09-09T08:20:03;97815.25;;;28.01;45.23
60589;BME280;46421;48.610;9.334;2022-09-09T08:22:31;97812.22;;;28.03;40.21
60589;BME280;46421;48.610;9.334;2022-09-09T08:24:57;97810.44;;;30.12;36.40
60589;BME280;46421;48.610;9.334;2022-09-09T08:27:23;97801.78;;;28.76;37.76
60589;BME280;46421;48.610;9.334;2022-09-09T08:29:49;97810.13;;;30.14;34.70
60589;BME280;46421;48.610;9.334;2022-09-09T08:32:14;97811.03;;;28.61;39.02
60589;BME280;46421;48.610;9.334;2022-09-09T08:34:41;97808.16;;;27.43;39.93
60589;BME280;46421;48.610;9.334;2022-09-09T08:37:07;97811.06;;;27.71;41.21
60589;BME280;46421;48.610;9.334;2022-09-09T08:39:32;97809.28;;;28.84;37.04
60589;BME280;46421;48.610;9.334;2022-09-09T08:47:36;97824.28;;;28.21;37.16
60589;BME280;46421;48.610;9.334;2022-09-09T08:50:19;97827.47;;;27.22;40.55
60589;BME280;46421;48.610;9.334;2022-09-09T08:53:09;97820.09;;;28.43;38.81
60589;BME280;46421;48.610;9.334;2022-09-09T08:55:52;97815.19;;;30.66;34.55
60589;BME280;46421;48.610;9.334;2022-09-09T08:58:23;97815.19;;;30.21;35.32
60589;BME280;46421;48.610;9.334;2022-09-09T09:01:14;97817.09;;;29.19;35.26
60589;BME280;46421;48.610;9.334;2022-09-09T09:04:11;97824.50;;;29.46;35.86
60589;BME280;46421;48.610;9.334;2022-09-09T09:09:37;97810.03;;;29.83;36.81
60589;BME280;46421;48.610;9.334;2022-09-09T09:12:15;97805.31;;;29.60;34.88
60589;BME280;46421;48.610;9.334;2022-09-09T09:14:43;97813.59;;;26.35;41.26
60589;BME280;46421;48.610;9.334;2022-09-09T09:17:12;97805.94;;;24.67;44.37
60589;BME280;46421;48.610;9.334;2022-09-09T09:19:40;97806.91;;;22.99;48.89
60589;BME280;46421;48.610;9.334;2022-09-09T09:22:18;97807.84;;;22.72;49.36
60589;BME280;46421;48.610;9.334;2022-09-09T09:28:07;97798.88;;;23.98;46.53
60589;BME280;46421;48.610;9.334;2022-09-09T09:30:39;97800.38;;;25.08;46.51
60589;BME280;46421;48.610;9.334;2022-09-09T09:36:01;97792.66;;;30.01;34.58
60589;BME280;46421;48.610;9.334;2022-09-09T09:38:28;97803.56;;;28.67;35.11
60589;BME280;46421;48.610;9.334;2022-09-09T09:40:56;97794.28;;;29.10;34.27
60589;BME280;46421;48.610;9.334;2022-09-09T09:43:52;97802.38;;;28.73;35.74
60589;BME280;46421;48.610;9.334;2022-09-09T09:46:22;97800.94;;;28.76;35.61
60589;BME280;46421;48.610;9.334;2022-09-09T09:49:02;97801.34;;;30.26;32.65
60589;BME280;46421;48.610;9.334;2022-09-09T09:51:30;97802.22;;;29.39;32.87
60589;BME280;46421;48.610;9.334;2022-09-09T09:56:38;97792.69;;;30.55;33.38
60589;BME280;46421;48.610;9.334;2022-09-09T09:59:04;97792.56;;;32.55;30.66
60589;BME280;46421;48.610;9.334;2022-09-09T10:01:32;97782.91;;;33.26;31.15
60589;BME280;46421;48.610;9.334;2022-09-09T10:04:12;97781.78;;;31.71;30.23
60589;BME280;46421;48.610;9.334;2022-09-09T10:06:39;97779.47;;;32.61;31.12
60589;BME280;46421;48.610;9.334;2022-09-09T10:09:28;97777.44;;;32.05;29.07
60589;BME280;46421;48.610;9.334;2022-09-09T10:12:23;97774.25;;;34.43;25.81
60589;BME280;46421;48.610;9.334;2022-09-09T10:15:07;97768.34;;;28.46;33.32
60589;BME280;46421;48.610;9.334;2022-09-09T10:18:05;97769.59;;;29.65;32.97
60589;BME280;46421;48.610;9.334;2022-09-09T10:20:42;97764.75;;;30.85;30.13
60589;BME280;46421;48.610;9.334;2022-09-09T10:29:38;97755.72;;;24.02;42.58
60589;BME280;46421;48.610;9.334;2022-09-09T10:35:17;97751.03;;;25.46;41.57
60589;BME280;46421;48.610;9.334;2022-09-09T10:38:05;97745.69;;;30.80;31.55
60589;BME280;46421;48.610;9.334;2022-09-09T10:40:46;97751.31;;;30.43;31.63
60589;BME280;46421;48.610;9.334;2022-09-09T10:48:50;97740.38;;;21.95;45.22
60589;BME280;46421;48.610;9.334;2022-09-09T10:57:09;97744.00;;;28.64;32.16
60589;BME280;46421;48.610;9.334;2022-09-09T10:59:41;97743.44;;;28.81;33.24
60589;BME280;46421;48.610;9.334;2022-09-09T11:02:26;97739.06;;;26.80;37.31
60589;BME280;46421;48.610;9.334;2022-09-09T11:05:10;97727.25;;;28.04;36.19
60589;BME280;46421;48.610;9.334;2022-09-09T11:10:34;97720.41;;;29.97;28.24
60589;BME280;46421;48.610;9.334;2022-09-09T11:13:10;97730.69;;;28.76;30.06
60589;BME280;46421;48.610;9.334;2022-09-09T11:15:47;97713.00;;;28.54;32.03
60589;BME280;46421;48.610;9.334;2022-09-09T11:18:20;97719.84;;;29.49;29.61
60589;BME280;46421;48.610;9.334;2022-09-09T11:20:59;97719.16;;;29.30;30.37
60589;BME280;46421;48.610;9.334;2022-09-09T11:23:33;97714.81;;;29.29;31.36
60589;BME280;46421;48.610;9.334;2022-09-09T11:26:04;97721.97;;;29.53;30.47
60589;BME280;46421;48.610;9.334;2022-09-09T11:29:22;97736.63;;;28.17;32.62
60589;BME280;46421;48.610;9.334;2022-09-09T11:34:26;97742.38;;;26.18;36.07
60589;BME280;46421;48.610;9.334;2022-09-09T11:37:21;97754.00;;;23.55;41.28
60589;BME280;46421;48.610;9.334;2022-09-09T11:40:07;97768.31;;;21.73;47.85
60589;BME280;46421;48.610;9.334;2022-09-09T11:42:35;97762.81;;;20.74;55.14
60589;BME280;46421;48.610;9.334;2022-09-09T11:45:26;97776.09;;;19.62;66.59
60589;BME280;46421;48.610;9.334;2022-09-09T11:47:59;97785.75;;;20.03;72.70
60589;BME280;46421;48.610;9.334;2022-09-09T11:52:50;97772.75;;;25.96;48.86
60589;BME280;46421;48.610;9.334;2022-09-09T11:55:31;97778.59;;;23.27;55.00
60589;BME280;46421;48.610;9.334;2022-09-09T11:57:59;97786.91;;;21.97;57.81
60589;BME280;46421;48.610;9.334;2022-09-09T12:00:37;97775.66;;;21.06;58.20
60589;BME280;46421;48.610;9.334;2022-09-09T12:03:05;97787.03;;;20.69;61.85
60589;BME280;46421;48.610;9.334;2022-09-09T12:05:40;97787.94;;;22.51;56.65
60589;BME280;46421;48.610;9.334;2022-09-09T12:08:09;97790.06;;;23.60;53.86
60589;BME280;46421;48.610;9.334;2022-09-09T12:10:39;97779.25;;;26.93;42.25
60589;BME280;46421;48.610;9.334;2022-09-09T12:13:20;97776.66;;;29.30;39.96
60589;BME280;46421;48.610;9.334;2022-09-09T12:15:55;97774.00;;;29.25;35.09
60589;BME280;46421;48.610;9.334;2022-09-09T12:18:23;97772.09;;;28.97;36.39
60589;BME280;46421;48.610;9.334;2022-09-09T12:21:05;97773.38;;;30.15;33.36
60589;BME280;46421;48.610;9.334;2022-09-09T12:23:58;97772.56;;;28.24;32.35
60589;BME280;46421;48.610;9.334;2022-09-09T12:26:32;97776.97;;;27.49;33.05
60589;BME280;46421;48.610;9.334;2022-09-09T12:31:51;97758.59;;;29.01;31.59
60589;BME280;46421;48.610;9.334;2022-09-09T12:34:53;97747.75;;;28.07;33.55
60589;BME280;46421;48.610;9.334;2022-09-09T12:37:35;97750.69;;;27.91;32.43
60589;BME280;46421;48.610;9.334;2022-09-09T12:40:23;97744.56;;;28.33;34.47
60589;BME280;46421;48.610;9.334;2022-09-09T12:42:49;97742.91;;;29.07;32.91
60589;BME280;46421;48.610;9.334;2022-09-09T12:45:26;97745.13;;;29.05;33.22
60589;BME280;46421;48.610;9.334;2022-09-09T12:48:02;97737.94;;;28.95;32.97
60589;BME280;46421;48.610;9.334;2022-09-09T12:50:31;97737.38;;;28.51;31.07
60589;BME280;46421;48.610;9.334;2022-09-09T12:53:06;97731.16;;;27.98;33.82
60589;BME280;46421;48.610;9.334;2022-09-09T12:55:36;97746.53;;;27.37;34.50
60589;BME280;46421;48.610;9.334;2022-09-09T12:58:03;97748.22;;;26.89;35.54
60589;BME280;46421;48.610;9.334;2022-09-09T13:00:32;97734.25;;;28.44;33.74
60589;BME280;46421;48.610;9.334;2022-09-09T13:02:59;97744.94;;;27.74;35.74
60589;BME280;46421;48.610;9.334;2022-09-09T13:05:37;97728.38;;;27.84;36.49
60589;BME280;46421;48.610;9.334;2022-09-09T13:08:06;97722.56;;;27.91;34.97
60589;BME280;46421;48.610;9.334;2022-09-09T13:10:39;97731.16;;;27.03;36.19
60589;BME280;46421;48.610;9.334;2022-09-09T13:13:18;97733.22;;;25.08;40.06
60589;BME280;46421;48.610;9.334;2022-09-09T13:15:50;97727.72;;;25.24;38.59
60589;BME280;46421;48.610;9.334;2022-09-09T13:18:21;97723.66;;;24.30;39.24
60589;BME280;46421;48.610;9.334;2022-09-09T13:20:48;97724.41;;;22.79;42.36
60589;BME280;46421;48.610;9.334;2022-09-09T13:23:15;97715.16;;;22.65;42.73
60589;BME280;46421;48.610;9.334;2022-09-09T13:25:53;97721.59;;;23.12;42.41
60589;BME280;46421;48.610;9.334;2022-09-09T13:28:22;97718.16;;;25.77;36.17
60589;BME280;46421;48.610;9.334;2022-09-09T13:31:04;97714.44;;;26.85;35.43
60589;BME280;46421;48.610;9.334;2022-09-09T13:33:36;97713.13;;;26.53;36.91
60589;BME280;46421;48.610;9.334;2022-09-09T13:38:35;97707.47;;;26.49;37.60
60589;BME280;46421;48.610;9.334;2022-09-09T13:41:03;97705.75;;;26.29;36.24
60589;BME280;46421;48.610;9.334;2022-09-09T13:43:33;97708.34;;;26.15;34.64
60589;BME280;46421;48.610;9.334;2022-09-09T13:46:02;97704.53;;;26.16;38.69
60589;BME280;46421;48.610;9.334;2022-09-09T13:48:28;97706.59;;;26.30;37.03
60589;BME280;46421;48.610;9.334;2022-09-09T13:51:00;97708.31;;;26.45;37.96
60589;BME280;46421;48.610;9.334;2022-09-09T13:53:26;97699.91;;;26.41;37.22
60589;BME280;46421;48.610;9.334;2022-09-09T13:55:52;97700.38;;;26.24;38.20
60589;BME280;46421;48.610;9.334;2022-09-09T13:58:18;97697.81;;;26.33;36.62
60589;BME280;46421;48.610;9.334;2022-09-09T14:00:45;97696.91;;;25.79;37.29
60589;BME280;46421;48.610;9.334;2022-09-09T14:03:10;97701.91;;;25.66;36.79
60589;BME280;46421;48.610;9.334;2022-09-09T14:05:36;97695.31;;;26.07;37.26
60589;BME280;46421;48.610;9.334;2022-09-09T14:08:03;97694.38;;;25.87;38.92
60589;BME280;46421;48.610;9.334;2022-09-09T14:10:29;97687.19;;;25.72;38.46
60589;BME280;46421;48.610;9.334;2022-09-09T14:12:54;97688.66;;;26.72;36.94
60589;BME280;46421;48.610;9.334;2022-09-09T14:15:21;97689.81;;;27.14;34.73
60589;BME280;46421;48.610;9.334;2022-09-09T14:17:47;97693.09;;;26.44;34.34
60589;BME280;46421;48.610;9.334;2022-09-09T14:20:14;97686.72;;;26.54;35.27
60589;BME280;46421;48.610;9.334;2022-09-09T14:22:40;97692.25;;;26.67;33.90
60589;BME280;46421;48.610;9.334;2022-09-09T14:25:07;97687.69;;;26.39;35.06
60589;BME280;46421;48.610;9.334;2022-09-09T14:27:32;97682.59;;;25.97;35.07
60589;BME280;46421;48.610;9.334;2022-09-09T14:29:58;97684.50;;;25.97;36.08
60589;BME280;46421;48.610;9.334;2022-09-09T14:32:25;97692.75;;;25.52;36.04
60589;BME280;46421;48.610;9.334;2022-09-09T14:34:50;97684.72;;;25.31;37.55
60589;BME280;46421;48.610;9.334;2022-09-09T14:37:16;97685.53;;;24.76;38.20
60589;BME280;46421;48.610;9.334;2022-09-09T14:39:42;97685.50;;;24.82;37.00